Friday, March 06, 2015
00:00 UTC
  |  Log In   |  Register Free
Airport Search:

Clinton-Sampson County Airport
(KCTZ)

Clinton-Sampson County Airport Diagram
No Airport Diagram Available

FAA data valid effective March 05, 2015 - April 30, 2015 (unless otherwise noted).

 
 
 
 
 
 
 
 
 
 
 
 
 
 

Current Aviation Weather for Clinton-Sampson County Airport (KCTZ)

The most recent METAR observation for KCTZ was updated at: 2312
METAR Summary (Translated METAR)
KCTZ
052255Z AUTO 05005KT 5SM RA BKN008 BKN029 OVC060 04/04 A3006 RMK AO2 P0017 T00400040
KDPL
052255Z AUTO 07004KT 2 1/2SM -RA SCT016 BKN028 OVC040 03/03 A3005 RMK AO2 P0014 T00330030
(18.9 nm NE from KCTZ)
KEYF
052255Z AUTO 10004KT 7SM -RA OVC007 04/04 A3004 RMK AO2 P0009 T00400035
(24.8 nm SW from KCTZ)
TAF
No TAF information found within 50 nm of KCTZ
  Airport Weather Conditions for KCTZ

 Current Weather at CTZ
39° F
Unknown Precip
East winds at 8.1 mph
CTZ NOAA Radar

Pressure: 30.04 in
Humidity: 98%
Wind: East at 8.1 MPH (7 KT)
Dew Point: 38.7°F
Visibility: 2.00 mi


Airport Weather Forecast for KCTZ

Translated METAR and TAF for KCTZ
Translated METAR for KCTZ (2359 UTC 05 March 2015)
found at http://aviationweather.gov/adds/metars/
 
METAR text: KCTZ 052335Z AUTO 35006KT 10SM -RA OVC008 04/04 A3014 RMK AO2 P0002 T00420041
Conditions at: KCTZ (CLINTON , NC, US) observed 2335 UTC 05 March 2015
Temperature: 4.2°C (40°F)
Dewpoint: 4.1°C (39°F) [RH = 99%]
Pressure (altimeter): 30.14 inches Hg (1020.7 mb)
Winds: from the N (350 degrees) at 7 MPH (6 knots; 3.1 m/s)
Visibility: 10 or more miles (16+ km)
Ceiling: 800 feet AGL
Clouds: overcast cloud deck at 800 feet AGL
Weather: -RA  (light rain)
Translated TAF for KCTZ

There is no translated TAF available for this airport

Find All Airport Services Find A Hotel Find A Rental Car Find A Golf Course Find A Restaurant $100 Hamburger



FBO's on the Field
FBO Company Facility Photos Services Transportation Aviation Fuel Prices: Prices include tax
Catering Weather Repair Courtesy Rental Type 100LL JetA JetA+ MOGAS 8087
 
Clinton Flying Service

This FBO has not yet been rated
FS:Shell
Last Updated: Mar-04
Login to update fuel prices
SS:
Contact Clinton Flying ServiceMore FBO Information
 
Add another FBO Facility Photos Catering Weather Repair Courtesy Rental Type 100LL JetA JetA+ MOGAS 8087
Services Transportation Aviation Fuel Prices: Prices include tax


model-print
model-print
model-print
model-print